Time;durP1;ratioP1;P1;durP2;ratioP2;P2;SDS_P1;SDS_P2;PMS_P1;PMS_P2;Temp;Humidity;BMP_temperature;BMP_pressure;BME280_temperature;BME280_humidity;BME280_pressure;Samples;Min_cycle;Max_cycle;Signal;HPM_P1;HPM_P2
2023/08/22 00:03:30;;;;;;;6.88;4.75;;;;;;;16.53;100.00;102039.19;10474713;28;20040;-68
2023/08/22 00:08:30;;;;;;;7.63;5.05;;;;;;;16.55;100.00;102048.09;10482646;28;20071;-67
2023/08/22 00:13:31;;;;;;;6.75;4.60;;;;;;;16.55;100.00;102048.09;10474232;28;20048;-68
2023/08/22 00:18:31;;;;;;;8.35;4.85;;;;;;;16.56;100.00;102016.44;10479847;28;20037;-67
2023/08/22 00:23:32;;;;;;;6.50;5.03;;;;;;;16.59;100.00;101999.19;10472157;28;20643;-67
2023/08/22 00:28:32;;;;;;;8.68;4.85;;;;;;;16.51;100.00;101952.44;10476200;28;20401;-67
2023/08/22 00:33:33;;;;;;;8.82;4.68;;;;;;;16.63;100.00;101961.41;10477520;28;20563;-67
2023/08/22 00:38:33;;;;;;;9.70;5.13;;;;;;;16.63;100.00;101939.16;10478118;28;20052;-67
2023/08/22 00:43:34;;;;;;;10.32;5.05;;;;;;;16.58;100.00;101954.97;10476924;28;20045;-68
2023/08/22 00:48:34;;;;;;;9.18;6.05;;;;;;;16.63;100.00;101992.00;10472717;28;20052;-67
2023/08/22 00:53:35;;;;;;;9.05;6.15;;;;;;;16.64;100.00;101990.91;10481743;28;20045;-67
2023/08/22 00:58:35;;;;;;;11.93;7.10;;;;;;;16.62;100.00;101998.69;10432179;28;20042;-68
2023/08/22 01:03:36;;;;;;;11.48;6.25;;;;;;;16.62;100.00;101997.81;10428768;28;20326;-67
2023/08/22 01:08:39;;;;;;;8.30;5.68;;;;;;;16.61;100.00;101994.22;10438175;28;20119;-67
2023/08/22 01:13:39;;;;;;;10.95;6.10;;;;;;;16.58;100.00;101999.47;10428928;28;20045;-66
2023/08/22 01:18:40;;;;;;;11.23;6.22;;;;;;;16.57;100.00;101993.06;10425808;28;20474;-65
2023/08/22 01:23:41;;;;;;;9.77;5.43;;;;;;;16.56;100.00;101988.63;10428625;28;20072;-67
2023/08/22 01:28:50;;;;;;;11.20;6.00;;;;;;;16.52;100.00;101982.75;10435249;28;20605;-66
2023/08/22 01:33:53;;;;;;;13.98;6.13;;;;;;;16.52;100.00;101981.94;10416559;28;20034;-67
2023/08/22 01:38:53;;;;;;;8.73;5.50;;;;;;;16.53;100.00;101978.03;10436297;28;20033;-66
2023/08/22 01:43:54;;;;;;;8.30;5.00;;;;;;;16.52;100.00;101971.63;10427396;28;20065;-66
2023/08/22 01:48:54;;;;;;;14.02;6.93;;;;;;;16.49;100.00;101976.88;10431119;28;20537;-66
2023/08/22 01:53:55;;;;;;;12.85;8.32;;;;;;;16.44;100.00;101982.41;10435643;28;20033;-66
2023/08/22 01:58:55;;;;;;;13.73;8.48;;;;;;;16.36;100.00;101949.56;10434702;28;20038;-66
2023/08/22 02:04:01;;;;;;;13.80;9.52;;;;;;;16.45;100.00;101964.63;10431059;28;20187;-66
2023/08/22 02:09:02;;;;;;;13.50;8.00;;;;;;;16.42;100.00;101954.06;10435243;28;20128;-66
2023/08/22 02:14:02;;;;;;;16.08;8.27;;;;;;;16.40;100.00;101945.97;10434579;28;20151;-66
2023/08/22 02:19:03;;;;;;;13.25;8.15;;;;;;;16.41;100.00;101938.47;10432621;28;20038;-67
2023/08/22 02:24:04;;;;;;;13.73;8.30;;;;;;;16.41;100.00;101932.91;10428080;28;20033;-67
2023/08/22 02:29:04;;;;;;;14.20;8.15;;;;;;;16.06;100.00;101862.09;10436793;28;20041;-66
2023/08/22 02:34:05;;;;;;;11.77;7.53;;;;;;;16.36;100.00;101922.59;10446201;28;20044;-66
2023/08/22 02:39:05;;;;;;;11.82;6.72;;;;;;;16.25;100.00;101921.72;10446941;28;20034;-64
2023/08/22 02:44:06;;;;;;;10.40;7.28;;;;;;;16.10;100.00;101921.56;10426436;28;20041;-66
2023/08/22 02:49:06;;;;;;;13.20;8.40;;;;;;;16.03;100.00;101918.19;10459486;28;20036;-67
2023/08/22 02:54:07;;;;;;;18.73;10.30;;;;;;;16.04;100.00;101920.72;10480023;28;20087;-66
2023/08/22 02:59:07;;;;;;;16.05;10.30;;;;;;;16.02;100.00;101928.47;10482460;28;20051;-66
2023/08/22 03:04:08;;;;;;;15.95;10.73;;;;;;;16.02;100.00;101924.84;10481687;28;20049;-66
2023/08/22 03:09:08;;;;;;;16.13;10.60;;;;;;;16.03;100.00;101929.31;10479614;28;20033;-66
2023/08/22 03:14:09;;;;;;;21.63;12.25;;;;;;;16.04;100.00;101923.50;10479695;28;20512;-66
2023/08/22 03:19:09;;;;;;;18.35;11.95;;;;;;;16.02;100.00;101927.63;10476793;28;20052;-66
2023/08/22 03:24:10;;;;;;;19.48;12.02;;;;;;;15.98;100.00;101927.34;10476296;28;20400;-66
2023/08/22 03:29:10;;;;;;;19.02;11.15;;;;;;;15.93;100.00;101914.22;10481699;28;20040;-66
2023/08/22 03:34:11;;;;;;;16.65;11.60;;;;;;;15.85;100.00;101911.94;10477997;28;20120;-67
2023/08/22 03:39:11;;;;;;;16.33;11.80;;;;;;;15.82;100.00;101918.03;10486731;28;20276;-67
2023/08/22 03:44:12;;;;;;;13.65;9.82;;;;;;;15.73;100.00;101906.56;10475338;28;20045;-66
2023/08/22 03:49:15;;;;;;;17.90;10.65;;;;;;;15.68;100.00;101913.97;10479327;28;20048;-67
2023/08/22 03:54:15;;;;;;;19.67;11.95;;;;;;;15.62;100.00;101917.81;10471524;28;20041;-67
2023/08/22 03:59:16;;;;;;;20.48;11.75;;;;;;;15.49;100.00;101903.25;10464143;28;20037;-66
2023/08/22 04:04:17;;;;;;;16.17;11.10;;;;;;;15.52;100.00;101908.28;10478752;28;20416;-66
2023/08/22 04:09:17;;;;;;;18.08;11.15;;;;;;;15.43;100.00;101904.31;10473137;28;20041;-67
2023/08/22 04:14:17;;;;;;;18.42;12.30;;;;;;;15.31;100.00;101898.06;10476829;28;20052;-65
2023/08/22 04:19:18;;;;;;;16.90;11.63;;;;;;;15.21;100.00;101900.72;10479151;28;21567;-66
2023/08/22 04:24:18;;;;;;;18.73;11.57;;;;;;;15.05;100.00;101899.75;10472273;28;20677;-66
2023/08/22 04:29:19;;;;;;;20.17;11.60;;;;;;;14.93;100.00;101905.41;10475493;28;20060;-66
2023/08/22 04:34:20;;;;;;;24.23;13.25;;;;;;;14.85;100.00;101914.19;10479586;28;20041;-66
2023/08/22 04:39:20;;;;;;;21.08;12.63;;;;;;;14.76;100.00;101912.94;10473482;28;20680;-66
2023/08/22 04:44:20;;;;;;;18.25;13.15;;;;;;;14.71;100.00;101914.53;10469922;28;20064;-67
2023/08/22 04:49:21;;;;;;;23.48;14.75;;;;;;;14.68;100.00;101914.25;10459740;28;20059;-66
2023/08/22 04:54:21;;;;;;;20.55;14.43;;;;;;;14.67;100.00;101907.84;10453148;28;20044;-66
2023/08/22 04:59:22;;;;;;;24.25;15.82;;;;;;;14.71;100.00;101900.69;10456402;28;20067;-66
2023/08/22 05:04:22;;;;;;;27.33;16.33;;;;;;;14.77;100.00;101911.84;10474015;28;20047;-66
2023/08/22 05:09:23;;;;;;;26.95;17.85;;;;;;;14.82;100.00;101904.44;10473603;28;20041;-66
2023/08/22 05:14:23;;;;;;;30.67;18.67;;;;;;;14.86;100.00;101904.75;10473644;28;20040;-67
2023/08/22 05:19:24;;;;;;;24.15;18.33;;;;;;;14.89;100.00;101909.81;10470267;28;20103;-66
2023/08/22 05:24:24;;;;;;;32.38;22.05;;;;;;;14.94;100.00;101912.63;10469438;28;20036;-66
2023/08/22 05:29:25;;;;;;;39.20;27.25;;;;;;;15.03;100.00;101916.63;10473679;28;20041;-66
2023/08/22 05:34:25;;;;;;;40.97;28.38;;;;;;;15.08;100.00;101919.44;10464802;28;20049;-66
2023/08/22 05:39:25;;;;;;;42.25;31.98;;;;;;;15.14;100.00;101900.94;10470343;28;20041;-67
2023/08/22 05:44:26;;;;;;;50.20;34.72;;;;;;;15.23;100.00;101912.41;10465445;28;20057;-67
2023/08/22 05:49:26;;;;;;;58.60;46.13;;;;;;;15.52;100.00;101916.63;10476237;28;20408;-66
2023/08/22 05:54:27;;;;;;;59.92;53.40;;;;;;;15.81;100.00;101921.06;10474320;28;20524;-66
2023/08/22 05:59:28;;;;;;;44.47;36.00;;;;;;;16.07;100.00;101919.34;10471649;28;20048;-66
2023/08/22 06:04:29;;;;;;;36.03;28.83;;;;;;;16.32;100.00;101925.06;10474957;28;20500;-66
2023/08/22 06:09:29;;;;;;;32.97;28.63;;;;;;;16.45;100.00;101928.50;10469526;28;20040;-66
2023/08/22 06:14:30;;;;;;;27.02;23.13;;;;;;;16.70;100.00;101919.47;10469389;28;20052;-66
2023/08/22 06:19:30;;;;;;;24.55;18.65;;;;;;;16.89;100.00;101928.22;10483684;28;20140;-67
2023/08/22 06:24:30;;;;;;;23.73;17.60;;;;;;;16.94;100.00;101923.50;10477727;28;20049;-66
2023/08/22 06:29:32;;;;;;;27.15;16.73;;;;;;;17.02;100.00;101924.94;10476494;28;20033;-66
2023/08/22 06:34:33;;;;;;;15.25;12.80;;;;;;;17.15;100.00;101924.41;10462447;28;20041;-66
2023/08/22 06:39:33;;;;;;;22.83;13.68;;;;;;;17.15;100.00;101906.88;10471513;28;20037;-65
2023/08/22 06:44:34;;;;;;;20.70;15.10;;;;;;;17.34;100.00;101923.91;10475450;28;20068;-66
2023/08/22 06:49:34;;;;;;;17.38;12.95;;;;;;;17.59;100.00;101928.72;10474679;28;20121;-66
2023/08/22 06:54:35;;;;;;;15.15;10.60;;;;;;;18.01;100.00;101927.66;10478351;28;20033;-66
2023/08/22 06:59:35;;;;;;;13.18;8.60;;;;;;;18.51;100.00;101930.66;10483031;28;20036;-66
2023/08/22 07:04:36;;;;;;;12.98;7.80;;;;;;;18.82;100.00;101930.59;10478214;28;20481;-67
2023/08/22 07:09:36;;;;;;;15.25;7.93;;;;;;;19.10;100.00;101917.91;10476206;28;20033;-67
2023/08/22 07:14:42;;;;;;;16.63;8.30;;;;;;;19.52;100.00;101936.94;10482819;28;20102;-67
2023/08/22 07:19:42;;;;;;;13.95;8.32;;;;;;;19.70;100.00;101931.78;10470201;28;20333;-67
2023/08/22 07:24:42;;;;;;;14.07;8.85;;;;;;;19.80;100.00;101928.94;10475483;28;20048;-67
2023/08/22 07:29:43;;;;;;;13.27;9.13;;;;;;;20.06;100.00;101924.00;10471234;28;20029;-67
2023/08/22 07:34:43;;;;;;;12.25;7.70;;;;;;;20.31;100.00;101930.47;10459891;28;20034;-67
2023/08/22 07:39:44;;;;;;;10.57;7.32;;;;;;;20.60;100.00;101921.25;10458507;28;20106;-68
2023/08/22 07:44:44;;;;;;;8.93;6.15;;;;;;;20.70;100.00;101921.97;10472785;28;20051;-68
2023/08/22 07:49:45;;;;;;;6.57;5.10;;;;;;;20.90;100.00;101922.88;10467473;28;20029;-68
2023/08/22 07:54:45;;;;;;;10.48;5.20;;;;;;;20.99;100.00;101937.03;10465525;28;20040;-68
2023/08/22 07:59:46;;;;;;;11.48;5.65;;;;;;;21.01;100.00;101926.38;10467805;28;20094;-67
2023/08/22 08:04:46;;;;;;;7.97;4.97;;;;;;;21.20;100.00;101924.44;10456020;28;20053;-67
2023/08/22 08:09:47;;;;;;;7.88;4.20;;;;;;;21.20;100.00;101934.81;10463466;28;20037;-67
2023/08/22 08:14:47;;;;;;;7.90;3.15;;;;;;;21.24;100.00;101933.06;10464547;28;20032;-68
2023/08/22 08:19:48;;;;;;;7.22;2.72;;;;;;;21.15;100.00;101925.34;10456821;28;20040;-68
2023/08/22 08:24:48;;;;;;;7.40;2.90;;;;;;;21.10;100.00;101930.16;10482062;28;20045;-67
2023/08/22 08:29:49;;;;;;;3.72;1.23;;;;;;;21.26;100.00;101928.81;10475929;28;20039;-68
2023/08/22 08:34:49;;;;;;;2.42;1.10;;;;;;;21.39;100.00;101910.44;10472052;28;20041;-68
2023/08/22 08:39:50;;;;;;;3.30;0.88;;;;;;;21.62;100.00;101913.47;10464277;28;20052;-67
2023/08/22 08:44:50;;;;;;;5.95;1.63;;;;;;;21.93;100.00;101916.63;10459918;28;21329;-68
2023/08/22 08:49:51;;;;;;;2.83;1.30;;;;;;;22.06;100.00;101901.00;10456560;28;20068;-68
2023/08/22 08:54:51;;;;;;;4.35;1.02;;;;;;;22.26;100.00;101911.88;10457133;28;20091;-67
2023/08/22 08:59:51;;;;;;;2.85;1.10;;;;;;;22.56;100.00;101902.03;10475665;28;20033;-68
2023/08/22 09:04:52;;;;;;;5.32;1.20;;;;;;;22.62;100.00;101902.78;10470932;28;20037;-67
2023/08/22 09:10:11;;;;;;;2.50;1.05;;;;;;;22.48;100.00;101902.75;10433429;28;20037;-68
2023/08/22 09:15:30;;;;;;;5.20;1.00;;;;;;;23.08;100.00;101896.22;10438395;28;20033;-68
2023/08/22 09:20:49;;;;;;;4.78;1.50;;;;;;;23.60;100.00;101883.78;10414905;28;20505;-68
2023/08/22 09:26:11;;;;;;;3.40;1.70;;;;;;;23.75;100.00;101883.41;10464794;28;20054;-68
2023/08/22 09:31:24;;;;;;;2.30;0.93;;;;;;;23.87;100.00;101886.50;10475084;28;20032;-68
2023/08/22 09:36:24;;;;;;;3.10;1.08;;;;;;;24.20;100.00;101877.75;10476698;28;20043;-68
2023/08/22 09:41:26;;;;;;;1.52;0.82;;;;;;;24.46;100.00;101868.63;10413807;28;20052;-67
2023/08/22 09:46:27;;;;;;;5.00;1.45;;;;;;;24.47;100.00;101870.25;10472617;28;20420;-68
2023/08/22 09:51:27;;;;;;;1.25;0.73;;;;;;;24.35;100.00;101871.72;10471335;28;20061;-68
2023/08/22 09:56:27;;;;;;;2.88;0.93;;;;;;;23.88;100.00;101876.91;10483353;28;20029;-68
2023/08/22 10:01:29;;;;;;;3.97;1.10;;;;;;;23.81;100.00;101882.16;10475181;28;20126;-68
2023/08/22 10:06:30;;;;;;;2.53;1.10;;;;;;;24.03;100.00;101877.66;10483094;28;20592;-68
2023/08/22 10:11:31;;;;;;;4.50;0.95;;;;;;;24.22;100.00;101863.38;10446232;28;20040;-67
2023/08/22 10:16:32;;;;;;;1.90;0.90;;;;;;;24.47;100.00;101853.38;10463026;28;20055;-67
2023/08/22 10:21:43;;;;;;;1.95;0.70;;;;;;;24.73;100.00;101861.94;10473653;28;20074;-67
2023/08/22 10:26:49;;;;;;;2.08;0.70;;;;;;;24.43;100.00;101874.88;10459512;28;20037;-68
2023/08/22 10:32:01;;;;;;;4.30;0.60;;;;;;;24.60;100.00;101874.16;10442930;28;20081;-68
2023/08/22 10:37:05;;;;;;;4.80;0.77;;;;;;;25.11;100.00;101873.44;10427458;28;20512;-68
2023/08/22 10:42:23;;;;;;;3.33;0.80;;;;;;;24.89;100.00;101893.31;10477167;28;20041;-67
2023/08/22 10:47:24;;;;;;;1.48;0.65;;;;;;;25.26;100.00;101865.69;10452011;28;20041;-67
2023/08/22 10:52:33;;;;;;;1.38;0.90;;;;;;;25.26;100.00;101862.88;10457958;28;20045;-67
2023/08/22 10:57:36;;;;;;;1.65;0.70;;;;;;;25.30;100.00;101867.56;10426992;28;20102;-67
2023/08/22 11:02:37;;;;;;;5.82;0.95;;;;;;;25.41;100.00;101856.78;10468450;28;20037;-68
2023/08/22 11:07:42;;;;;;;1.35;0.60;;;;;;;25.32;100.00;101850.28;10455958;28;20067;-67
2023/08/22 11:12:45;;;;;;;2.47;1.27;;;;;;;25.84;100.00;101846.59;10464520;28;20511;-67
2023/08/22 11:17:46;;;;;;;2.00;1.05;;;;;;;25.96;99.92;101855.22;10478017;28;20063;-68
2023/08/22 11:22:47;;;;;;;1.17;0.65;;;;;;;26.10;97.17;101835.28;10476956;28;20405;-67
2023/08/22 11:27:47;;;;;;;1.90;0.63;;;;;;;26.30;100.00;101850.66;10481746;28;20040;-67
2023/08/22 11:32:48;;;;;;;3.17;1.02;;;;;;;26.20;94.85;101829.25;10471335;28;20086;-67
2023/08/22 11:37:48;;;;;;;2.60;0.73;;;;;;;26.44;94.87;101839.09;10478278;28;20032;-67
2023/08/22 11:42:49;;;;;;;3.47;1.00;;;;;;;26.38;94.08;101839.31;10477691;28;20090;-67
2023/08/22 11:47:50;;;;;;;4.60;0.98;;;;;;;26.74;96.41;101849.28;10474827;28;20045;-67
2023/08/22 11:52:58;;;;;;;2.92;1.00;;;;;;;27.05;91.61;101847.25;10479064;28;20059;-67
2023/08/22 11:57:59;;;;;;;1.75;1.20;;;;;;;27.33;93.12;101841.94;10475717;28;20040;-67
2023/08/22 12:03:01;;;;;;;1.23;0.70;;;;;;;27.73;91.21;101839.38;10462083;28;20056;-67
2023/08/22 12:08:10;;;;;;;2.75;1.05;;;;;;;28.44;86.22;101822.41;10475915;28;20033;-67
2023/08/22 12:13:11;;;;;;;3.20;0.80;;;;;;;28.62;79.55;101801.19;10440152;28;20044;-67
2023/08/22 12:18:12;;;;;;;2.22;0.90;;;;;;;29.33;79.27;101807.41;10436848;28;20029;-67
2023/08/22 12:23:13;;;;;;;2.83;0.75;;;;;;;29.83;76.95;101813.69;10436856;28;20038;-66
2023/08/22 12:28:16;;;;;;;4.40;1.27;;;;;;;30.10;76.82;101829.84;10435886;28;20415;-68
2023/08/22 12:33:16;;;;;;;2.10;1.00;;;;;;;30.56;74.85;101815.19;10431988;28;20049;-67
2023/08/22 12:38:18;;;;;;;4.40;0.98;;;;;;;30.89;72.74;101800.56;10439423;28;20120;-67
2023/08/22 12:43:18;;;;;;;2.97;0.50;;;;;;;31.26;72.35;101811.53;10431295;28;20061;-66
2023/08/22 12:48:19;;;;;;;1.38;0.65;;;;;;;31.60;72.86;101819.53;10429036;28;20042;-66
2023/08/22 12:53:19;;;;;;;1.42;0.50;;;;;;;31.15;68.08;101802.78;10434482;28;20801;-66
2023/08/22 12:58:20;;;;;;;3.42;0.70;;;;;;;31.22;68.95;101806.97;10437670;28;20091;-66
2023/08/22 13:03:21;;;;;;;3.10;0.90;;;;;;;30.98;69.10;101794.66;10432912;28;20076;-66
2023/08/22 13:08:22;;;;;;;0.47;0.40;;;;;;;30.87;70.65;101776.53;10432573;28;20045;-66
2023/08/22 13:13:22;;;;;;;3.08;0.70;;;;;;;31.41;70.04;101806.94;10437099;28;20501;-67
2023/08/22 13:18:23;;;;;;;9.32;6.80;;;;;;;31.84;65.26;101796.41;10424969;28;20110;-66
2023/08/22 13:23:23;;;;;;;1.08;0.47;;;;;;;30.27;65.66;101788.09;10431610;28;20048;-66
2023/08/22 13:28:24;;;;;;;1.35;0.50;;;;;;;30.72;67.80;101781.88;10436314;28;20044;-64
2023/08/22 13:33:24;;;;;;;1.13;0.70;;;;;;;31.76;68.29;101795.47;10428732;28;20040;-66
2023/08/22 13:38:25;;;;;;;1.52;0.80;;;;;;;31.95;67.41;101791.72;10428389;28;20055;-66
2023/08/22 13:43:25;;;;;;;2.85;0.77;;;;;;;31.23;69.94;101800.06;10434584;28;20056;-66
2023/08/22 13:48:26;;;;;;;3.50;0.57;;;;;;;30.35;71.71;101796.44;10427792;28;20523;-66
2023/08/22 13:53:29;;;;;;;4.75;0.70;;;;;;;29.26;72.79;101791.00;10438573;28;20044;-66
2023/08/22 13:58:29;;;;;;;1.23;0.50;;;;;;;28.60;80.24;101820.53;10425847;28;20033;-66
2023/08/22 14:03:30;;;;;;;2.17;0.60;;;;;;;29.41;76.52;101803.59;10439460;28;20037;-67
2023/08/22 14:08:30;;;;;;;2.17;0.50;;;;;;;30.40;71.08;101788.81;10425399;28;20058;-66
2023/08/22 14:13:31;;;;;;;2.47;0.70;;;;;;;29.39;72.30;101791.78;10437450;28;20033;-66
2023/08/22 14:18:31;;;;;;;2.40;0.63;;;;;;;29.58;72.73;101799.59;10429263;28;20045;-66
2023/08/22 14:23:32;;;;;;;2.90;1.10;;;;;;;28.42;77.65;101811.41;10431304;28;20056;-67
2023/08/22 14:28:32;;;;;;;4.03;1.05;;;;;;;28.37;76.40;101795.50;10425558;28;20037;-66
2023/08/22 14:33:33;;;;;;;3.05;1.05;;;;;;;28.23;76.67;101809.19;10433451;28;20045;-67
2023/08/22 14:38:34;;;;;;;1.95;1.30;;;;;;;27.63;80.29;101814.34;10426977;28;20054;-67
2023/08/22 14:43:34;;;;;;;3.55;1.10;;;;;;;28.56;79.09;101799.78;10477578;28;20041;-66
2023/08/22 14:48:34;;;;;;;1.60;0.60;;;;;;;29.47;71.40;101790.81;10480444;28;20045;-66
2023/08/22 14:53:35;;;;;;;1.33;0.68;;;;;;;29.93;70.18;101785.63;10479672;28;20477;-67
2023/08/22 14:58:40;;;;;;;1.92;1.08;;;;;;;28.80;74.59;101800.94;10478682;28;20041;-67
2023/08/22 15:03:40;;;;;;;1.88;0.88;;;;;;;28.13;78.42;101801.16;10473244;28;20041;-66
2023/08/22 15:08:41;;;;;;;1.52;0.70;;;;;;;29.04;75.83;101797.19;10481646;28;20037;-66
2023/08/22 15:13:41;;;;;;;4.45;0.82;;;;;;;28.40;75.85;101798.81;10470833;28;20037;-66
2023/08/22 15:18:43;;;;;;;2.15;0.88;;;;;;;27.39;82.47;101809.44;10484477;28;20036;-66
2023/08/22 15:23:43;;;;;;;2.22;0.80;;;;;;;27.25;80.58;101795.59;10474441;28;20037;-67
2023/08/22 15:28:44;;;;;;;4.18;0.90;;;;;;;28.04;81.37;101798.44;10474432;28;20058;-66
2023/08/22 15:33:45;;;;;;;1.70;0.73;;;;;;;27.59;78.04;101799.25;10482353;28;20048;-66
2023/08/22 15:38:45;;;;;;;2.83;1.10;;;;;;;26.81;85.02;101819.66;10478931;28;20041;-66
2023/08/22 15:43:46;;;;;;;2.55;0.70;;;;;;;26.16;87.31;101812.16;10472933;28;20072;-66
2023/08/22 15:48:46;;;;;;;6.18;1.00;;;;;;;26.81;86.71;101812.03;10478199;28;20048;-66
2023/08/22 15:53:47;;;;;;;4.03;0.85;;;;;;;27.70;82.52;101791.13;10468357;28;20056;-66
2023/08/22 15:58:47;;;;;;;3.60;0.70;;;;;;;28.42;79.99;101779.44;10475810;28;20048;-65
2023/08/22 16:03:48;;;;;;;1.65;0.70;;;;;;;28.71;77.94;101787.72;10479070;28;20037;-67
2023/08/22 16:08:48;;;;;;;3.53;1.55;;;;;;;28.80;79.29;101789.59;10472039;28;20044;-66
2023/08/22 16:13:49;;;;;;;2.60;1.05;;;;;;;28.60;80.79;101797.88;10474617;28;20037;-67
2023/08/22 16:18:49;;;;;;;3.55;1.25;;;;;;;28.17;80.91;101790.78;10482538;28;20070;-67
2023/08/22 16:23:50;;;;;;;4.63;1.27;;;;;;;27.32;83.41;101806.31;10465077;28;20052;-67
2023/08/22 16:28:51;;;;;;;2.97;1.10;;;;;;;26.44;86.46;101816.50;10482679;28;20036;-67
2023/08/22 16:33:51;;;;;;;3.80;1.20;;;;;;;26.22;90.25;101824.09;10470031;28;20088;-66
2023/08/22 16:38:52;;;;;;;3.58;1.10;;;;;;;25.63;88.51;101809.81;10471655;28;20063;-66
2023/08/22 16:43:53;;;;;;;6.95;1.45;;;;;;;25.31;93.17;101831.72;10469274;28;20045;-67
2023/08/22 16:48:54;;;;;;;3.83;1.35;;;;;;;24.77;94.83;101827.16;10456296;28;20061;-68
2023/08/22 16:53:56;;;;;;;6.40;1.27;;;;;;;24.45;97.04;101830.34;10464982;28;20430;-66
2023/08/22 16:58:57;;;;;;;4.40;1.58;;;;;;;24.19;100.00;101825.47;10443297;28;20036;-66
2023/08/22 17:03:57;;;;;;;5.22;1.77;;;;;;;23.95;100.00;101843.53;10464679;28;20036;-67
2023/08/22 17:08:58;;;;;;;5.18;2.53;;;;;;;23.67;100.00;101825.13;10474193;28;20097;-66
2023/08/22 17:14:00;;;;;;;3.00;1.60;;;;;;;23.54;100.00;101844.56;10465132;28;20044;-66
2023/08/22 17:19:00;;;;;;;4.05;1.38;;;;;;;23.35;100.00;101841.09;10478116;28;20033;-67
2023/08/22 17:24:01;;;;;;;5.43;1.70;;;;;;;23.21;100.00;101846.75;10477319;28;20036;-67
2023/08/22 17:29:01;;;;;;;2.45;1.30;;;;;;;23.04;100.00;101841.00;10476958;28;20063;-67
2023/08/22 17:34:02;;;;;;;5.75;1.83;;;;;;;22.64;100.00;101821.06;10473504;28;20063;-66
2023/08/22 17:39:03;;;;;;;3.88;1.42;;;;;;;22.82;100.00;101861.38;10467868;28;20036;-67
2023/08/22 17:44:04;;;;;;;3.55;1.50;;;;;;;22.65;100.00;101862.84;10465687;28;20044;-67
2023/08/22 17:49:04;;;;;;;9.45;2.13;;;;;;;22.42;100.00;101855.47;10478646;28;20086;-67
2023/08/22 17:54:07;;;;;;;2.17;1.50;;;;;;;22.24;100.00;101860.88;10434823;28;20037;-67
2023/08/22 17:59:07;;;;;;;5.05;1.65;;;;;;;22.06;100.00;101864.53;10477461;28;20040;-67
2023/08/22 18:04:11;;;;;;;7.18;2.75;;;;;;;21.92;100.00;101872.91;10470925;28;20406;-67
2023/08/22 18:09:12;;;;;;;3.75;1.80;;;;;;;21.78;100.00;101875.66;10475681;28;20034;-67
2023/08/22 18:14:12;;;;;;;3.03;1.42;;;;;;;21.63;100.00;101884.34;10472930;28;20040;-67
2023/08/22 18:19:13;;;;;;;3.15;2.03;;;;;;;21.42;100.00;101887.47;10478411;28;20504;-67
2023/08/22 18:24:13;;;;;;;3.10;1.67;;;;;;;21.22;100.00;101888.56;10481220;28;20107;-66
2023/08/22 18:29:14;;;;;;;4.95;1.52;;;;;;;21.07;100.00;101897.19;10481613;28;20070;-68
2023/08/22 18:34:14;;;;;;;4.13;2.38;;;;;;;20.94;100.00;101895.97;10472976;28;20041;-67
2023/08/22 18:39:14;;;;;;;4.40;2.00;;;;;;;20.76;100.00;101912.38;10470556;28;20105;-67
2023/08/22 18:44:16;;;;;;;3.45;1.98;;;;;;;20.52;100.00;101908.72;10472004;28;20046;-67
2023/08/22 18:49:16;;;;;;;10.55;2.30;;;;;;;20.40;100.00;101920.31;10440621;28;20142;-68
2023/08/22 18:54:16;;;;;;;6.63;1.67;;;;;;;20.32;100.00;101929.38;10433733;28;20033;-67
2023/08/22 18:59:17;;;;;;;6.93;1.85;;;;;;;20.17;100.00;101927.53;10425918;28;20033;-66
2023/08/22 19:04:18;;;;;;;3.28;1.90;;;;;;;20.08;100.00;101923.72;10434031;28;20488;-68
2023/08/22 19:09:18;;;;;;;3.10;2.00;;;;;;;19.96;100.00;101941.69;10421329;28;20029;-67
2023/08/22 19:14:19;;;;;;;4.40;2.13;;;;;;;19.74;100.00;101939.34;10433240;28;20037;-66
2023/08/22 19:19:19;;;;;;;4.05;1.92;;;;;;;19.61;100.00;101955.88;10443998;28;20060;-67
2023/08/22 19:24:20;;;;;;;5.45;2.35;;;;;;;19.45;100.00;101957.94;10441360;28;20033;-67
2023/08/22 19:29:21;;;;;;;7.07;3.13;;;;;;;19.27;100.00;101968.66;10441192;28;20044;-68
2023/08/22 19:34:22;;;;;;;4.40;2.65;;;;;;;19.15;100.00;101954.19;10439326;28;20068;-66
2023/08/22 19:39:22;;;;;;;11.55;3.97;;;;;;;19.04;100.00;101975.72;10465535;28;20537;-67
2023/08/22 19:44:23;;;;;;;5.03;2.55;;;;;;;19.02;100.00;101971.56;10476789;28;20037;-67
2023/08/22 19:49:23;;;;;;;4.25;2.55;;;;;;;19.03;100.00;101973.22;10477817;28;20040;-67
2023/08/22 19:54:24;;;;;;;6.35;2.70;;;;;;;18.94;100.00;101968.22;10472594;28;20067;-67
2023/08/22 19:59:24;;;;;;;6.13;3.88;;;;;;;18.91;100.00;101981.91;10485203;28;20524;-67
2023/08/22 20:04:25;;;;;;;6.45;2.67;;;;;;;18.84;100.00;101970.22;10475350;28;20075;-67
2023/08/22 20:09:25;;;;;;;4.18;2.63;;;;;;;18.72;100.00;101979.69;10480946;28;20033;-67
2023/08/22 20:14:26;;;;;;;6.97;3.00;;;;;;;18.68;100.00;101984.16;10480636;28;20068;-69
2023/08/22 20:19:26;;;;;;;6.53;3.97;;;;;;;18.66;100.00;101983.59;10483289;28;20044;-71
2023/08/22 20:24:27;;;;;;;8.07;4.05;;;;;;;18.58;100.00;101986.97;10478561;28;20041;-70
2023/08/22 20:29:27;;;;;;;5.70;3.60;;;;;;;18.54;100.00;101977.47;10481042;28;20067;-69
2023/08/22 20:34:28;;;;;;;7.05;3.88;;;;;;;18.43;100.00;101975.84;10480422;28;20352;-68
2023/08/22 20:39:28;;;;;;;9.63;3.65;;;;;;;18.32;100.00;101975.84;10484820;28;20045;-69
2023/08/22 20:44:29;;;;;;;8.55;3.63;;;;;;;18.22;100.00;101980.59;10477980;28;20067;-69
2023/08/22 20:49:29;;;;;;;9.57;3.63;;;;;;;18.08;100.00;101974.75;10480864;28;20029;-69
2023/08/22 20:54:32;;;;;;;6.97;3.67;;;;;;;17.94;100.00;101975.31;10469915;28;20041;-68
2023/08/22 20:59:32;;;;;;;10.10;4.28;;;;;;;17.85;100.00;101976.94;10473971;28;20049;-68
2023/08/22 21:04:33;;;;;;;6.60;3.58;;;;;;;17.77;100.00;101976.63;10469691;28;20045;-66
2023/08/22 21:09:36;;;;;;;7.97;4.15;;;;;;;17.67;100.00;101972.72;10470465;28;20492;-69
2023/08/22 21:14:36;;;;;;;7.05;4.70;;;;;;;17.56;100.00;101965.44;10480288;28;20056;-68
2023/08/22 21:19:37;;;;;;;7.15;4.32;;;;;;;17.44;100.00;101967.66;10478402;28;20048;-69
2023/08/22 21:24:41;;;;;;;11.18;5.60;;;;;;;17.32;100.00;101965.97;10480135;28;20036;-69
2023/08/22 21:29:43;;;;;;;9.23;4.80;;;;;;;17.17;100.00;101948.34;10474445;28;20096;-68
2023/08/22 21:34:44;;;;;;;7.55;5.03;;;;;;;17.18;100.00;101978.72;10476784;28;20052;-69
2023/08/22 21:39:45;;;;;;;9.45;4.90;;;;;;;16.82;100.00;101930.41;10475606;28;20034;-69
2023/08/22 21:44:45;;;;;;;9.38;5.53;;;;;;;16.93;100.00;101976.66;10480340;28;20048;-68
2023/08/22 21:49:46;;;;;;;8.07;5.28;;;;;;;16.88;100.00;101988.56;10471447;28;20787;-68
2023/08/22 21:54:46;;;;;;;7.90;4.82;;;;;;;16.83;100.00;101974.63;10500103;28;20043;-68
2023/08/22 21:59:47;;;;;;;8.63;5.38;;;;;;;16.79;100.00;101978.22;10491074;28;20037;-67
2023/08/22 22:04:47;;;;;;;6.50;4.43;;;;;;;16.69;100.00;101981.75;10467512;28;20446;-69
2023/08/22 22:09:48;;;;;;;9.50;4.82;;;;;;;16.58;100.00;101975.28;10490330;28;20038;-68
2023/08/22 22:14:48;;;;;;;8.00;5.13;;;;;;;16.44;100.00;101965.75;10475860;28;20044;-66
2023/08/22 22:19:49;;;;;;;11.20;5.68;;;;;;;16.46;100.00;101977.44;10486381;28;20056;-68
2023/08/22 22:24:49;;;;;;;8.45;5.20;;;;;;;16.38;100.00;101975.97;10488434;28;20040;-67
2023/08/22 22:29:50;;;;;;;9.30;4.75;;;;;;;16.34;100.00;101983.19;10485088;28;20063;-67
2023/08/22 22:34:50;;;;;;;7.65;5.57;;;;;;;16.27;100.00;101983.41;10482980;28;20028;-68
2023/08/22 22:39:51;;;;;;;7.68;5.25;;;;;;;16.18;100.00;101986.94;10484753;28;20063;-68
2023/08/22 22:44:52;;;;;;;8.75;5.20;;;;;;;16.06;100.00;101976.00;10485275;28;20473;-67